Time;durP1;ratioP1;P1;durP2;ratioP2;P2;SDS_P1;SDS_P2;PMS_P1;PMS_P2;Temp;Humidity;BMP_temperature;BMP_pressure;BME280_temperature;BME280_humidity;BME280_pressure;Samples;Min_cycle;Max_cycle;Signal;HPM_P1;HPM_P2
2023/12/02 00:01:33;;;;;;;0.60;0.60;;;;;;;-3.62;100.00;100953.19;5092204;28;20031;-46
2023/12/02 00:03:59;;;;;;;0.60;0.60;;;;;;;-3.59;100.00;100943.41;5092961;28;20032;-47
2023/12/02 00:06:24;;;;;;;0.60;0.60;;;;;;;-3.65;100.00;100941.22;5092942;28;20024;-45
2023/12/02 00:08:49;;;;;;;0.60;0.60;;;;;;;-3.68;100.00;100933.41;5091646;28;20028;-46
2023/12/02 00:11:14;;;;;;;0.60;0.60;;;;;;;-3.72;100.00;100931.38;5092504;28;20107;-46
2023/12/02 00:13:40;;;;;;;0.52;0.52;;;;;;;-3.58;100.00;100949.31;5092970;28;20024;-45
2023/12/02 00:16:06;;;;;;;0.60;0.60;;;;;;;-3.74;100.00;100945.44;5092276;28;20610;-46
2023/12/02 00:18:31;;;;;;;0.70;0.70;;;;;;;-3.74;100.00;100945.44;5092559;28;20032;-45
2023/12/02 00:20:56;;;;;;;0.70;0.70;;;;;;;-3.72;100.00;100941.44;5093039;28;20024;-46
2023/12/02 00:23:21;;;;;;;0.60;0.60;;;;;;;-3.70;100.00;100939.91;5091993;28;20364;-45
2023/12/02 00:25:47;;;;;;;0.60;0.60;;;;;;;-3.70;100.00;100939.91;5092616;28;20482;-45
2023/12/02 00:28:12;;;;;;;0.70;0.70;;;;;;;-3.67;100.00;100935.16;5092618;28;20024;-45
2023/12/02 00:30:37;;;;;;;0.70;0.70;;;;;;;-3.68;100.00;100940.94;5092199;28;20024;-45
2023/12/02 00:33:03;;;;;;;0.60;0.60;;;;;;;-3.65;100.00;100938.69;5092444;28;20054;-46
2023/12/02 00:35:28;;;;;;;0.70;0.70;;;;;;;-3.65;100.00;100938.69;5092450;28;20040;-47
2023/12/02 00:37:53;;;;;;;0.63;0.63;;;;;;;-3.62;100.00;100939.72;5092233;28;20081;-45
2023/12/02 00:40:19;;;;;;;0.60;0.60;;;;;;;-3.58;100.00;100942.63;5092129;28;20028;-46
2023/12/02 00:42:44;;;;;;;0.60;0.60;;;;;;;-3.56;100.00;100937.75;5092847;28;20137;-45
2023/12/02 00:45:09;;;;;;;0.60;0.60;;;;;;;-3.59;100.00;100938.34;5091484;28;20028;-46
2023/12/02 00:47:34;;;;;;;0.68;0.68;;;;;;;-3.53;100.00;100930.44;5092648;28;20416;-45
2023/12/02 00:50:00;;;;;;;0.70;0.70;;;;;;;-3.57;100.00;100931.81;5092390;28;20070;-45
2023/12/02 00:52:25;;;;;;;0.70;0.70;;;;;;;-3.55;100.00;100934.44;5092226;28;20020;-46
2023/12/02 00:54:50;;;;;;;0.63;0.63;;;;;;;-3.52;100.00;100940.66;5092702;28;20512;-46
2023/12/02 00:57:16;;;;;;;0.60;0.60;;;;;;;-3.53;100.00;100938.00;5091651;28;20036;-45
2023/12/02 00:59:41;;;;;;;0.57;0.57;;;;;;;-3.52;100.00;100934.72;5092161;28;20017;-46
2023/12/02 01:02:06;;;;;;;0.60;0.60;;;;;;;-3.52;100.00;100942.28;5092483;28;20039;-45
2023/12/02 01:04:32;;;;;;;0.50;0.50;;;;;;;-3.49;100.00;100933.34;5091733;28;20024;-44
2023/12/02 01:06:57;;;;;;;0.60;0.60;;;;;;;-3.47;100.00;100936.03;5092292;28;20031;-47
2023/12/02 01:09:23;;;;;;;0.50;0.50;;;;;;;-3.46;100.00;100937.75;5092188;28;20024;-46
2023/12/02 01:11:48;;;;;;;0.70;0.70;;;;;;;-3.46;100.00;100927.69;5091805;28;20391;-45
2023/12/02 01:14:13;;;;;;;0.60;0.60;;;;;;;-3.45;100.00;100923.53;5091667;28;20103;-45
2023/12/02 01:16:39;;;;;;;0.60;0.60;;;;;;;-3.43;100.00;100920.41;5092362;28;20060;-45
2023/12/02 01:19:04;;;;;;;0.50;0.50;;;;;;;-3.32;100.00;100922.22;5093336;28;20099;-45
2023/12/02 01:21:29;;;;;;;0.60;0.60;;;;;;;-3.34;100.00;100920.31;5095494;28;20036;-45
2023/12/02 01:23:55;;;;;;;0.60;0.60;;;;;;;-3.38;100.00;100928.34;5096068;28;20020;-48
2023/12/02 01:26:20;;;;;;;0.63;0.63;;;;;;;-3.33;100.00;100930.53;5095171;28;20026;-44
2023/12/02 01:28:46;;;;;;;0.60;0.60;;;;;;;-3.34;100.00;100922.84;5095520;28;20038;-46
2023/12/02 01:31:11;;;;;;;0.50;0.50;;;;;;;-3.37;100.00;100926.00;5095382;28;20032;-47
2023/12/02 01:33:37;;;;;;;0.50;0.50;;;;;;;-3.38;100.00;100929.25;5095334;28;20032;-45
2023/12/02 01:36:02;;;;;;;0.55;0.55;;;;;;;-3.31;100.00;100936.56;5095496;28;20116;-45
2023/12/02 01:38:28;;;;;;;0.50;0.50;;;;;;;-3.35;100.00;100928.63;5095461;28;20456;-45
2023/12/02 01:40:53;;;;;;;0.60;0.60;;;;;;;-3.35;100.00;100936.19;5095051;28;20137;-44
2023/12/02 01:43:26;;;;;;;0.60;0.60;;;;;;;-3.39;100.00;100947.63;5094983;28;20460;-44
2023/12/02 01:45:52;;;;;;;0.60;0.60;;;;;;;-3.38;100.00;100948.50;5095379;28;20223;-46
2023/12/02 01:48:20;;;;;;;0.70;0.70;;;;;;;-3.37;100.00;100961.25;5094505;28;20475;-45
2023/12/02 01:50:46;;;;;;;0.50;0.50;;;;;;;-3.39;100.00;100956.84;5095249;28;20024;-45
2023/12/02 01:53:11;;;;;;;0.57;0.57;;;;;;;-3.33;100.00;100958.25;5095141;28;20074;-45
2023/12/02 01:55:36;;;;;;;0.60;0.60;;;;;;;-3.39;100.00;100954.31;5094570;28;20024;-45
2023/12/02 01:58:02;;;;;;;0.50;0.50;;;;;;;-3.39;100.00;100957.72;5095031;28;20028;-47
2023/12/02 02:00:27;;;;;;;0.70;0.70;;;;;;;-3.41;100.00;100959.19;5094201;28;20021;-46
2023/12/02 02:02:53;;;;;;;0.70;0.70;;;;;;;-3.42;100.00;100962.50;5095067;28;20016;-44
2023/12/02 02:05:18;;;;;;;0.52;0.52;;;;;;;-3.38;100.00;100966.16;5094814;28;20051;-45
2023/12/02 02:07:43;;;;;;;0.60;0.60;;;;;;;-3.41;100.00;100966.75;5094743;28;20020;-46
2023/12/02 02:10:09;;;;;;;0.60;0.60;;;;;;;-3.46;100.00;100965.47;5094905;28;20024;-45
2023/12/02 02:12:35;;;;;;;0.60;0.60;;;;;;;-3.54;100.00;100964.84;5094927;28;20416;-45
2023/12/02 02:15:00;;;;;;;0.50;0.50;;;;;;;-3.58;100.00;100959.38;5094576;28;20028;-45
2023/12/02 02:17:25;;;;;;;0.63;0.63;;;;;;;-3.66;100.00;100957.06;5094471;28;20051;-45
2023/12/02 02:19:51;;;;;;;0.60;0.60;;;;;;;-3.73;100.00;100967.38;5094842;28;20028;-45
2023/12/02 02:22:16;;;;;;;0.68;0.68;;;;;;;-3.81;100.00;100956.59;5094075;28;20077;-45
2023/12/02 02:24:41;;;;;;;0.60;0.60;;;;;;;-3.89;100.00;100961.72;5094453;28;20399;-45
2023/12/02 02:27:07;;;;;;;0.60;0.60;;;;;;;-3.93;100.00;100959.66;5094566;28;20110;-45
2023/12/02 02:29:32;;;;;;;0.60;0.60;;;;;;;-3.95;100.00;100962.06;5094070;28;20464;-45
2023/12/02 02:31:57;;;;;;;0.70;0.70;;;;;;;-4.00;100.00;100961.63;5093673;28;20483;-45
2023/12/02 02:34:22;;;;;;;0.70;0.70;;;;;;;-4.02;100.00;100958.09;5094265;28;20024;-44
2023/12/02 02:36:48;;;;;;;0.70;0.70;;;;;;;-4.05;100.00;100954.44;5093907;28;20076;-46
2023/12/02 02:39:13;;;;;;;0.60;0.60;;;;;;;-4.05;100.00;100957.81;5093933;28;20023;-45
2023/12/02 02:41:39;;;;;;;0.60;0.60;;;;;;;-4.09;100.00;100958.31;5094443;28;20380;-45
2023/12/02 02:44:04;;;;;;;0.50;0.50;;;;;;;-4.08;100.00;100961.69;5093715;28;20027;-46
2023/12/02 02:46:29;;;;;;;0.60;0.60;;;;;;;-4.07;100.00;100965.97;5093524;28;20060;-45
2023/12/02 02:48:55;;;;;;;0.57;0.57;;;;;;;-4.07;100.00;100971.88;5094485;28;20032;-45
2023/12/02 02:51:20;;;;;;;0.60;0.60;;;;;;;-4.04;100.00;100967.16;5093292;28;20043;-45
2023/12/02 02:53:45;;;;;;;0.45;0.45;;;;;;;-4.03;100.00;100963.88;5093880;28;20024;-46
2023/12/02 02:56:11;;;;;;;0.60;0.60;;;;;;;-4.02;100.00;100970.66;5093679;28;20032;-45
2023/12/02 02:58:36;;;;;;;0.60;0.60;;;;;;;-3.99;100.00;100978.53;5093738;28;20098;-45
2023/12/02 03:01:03;;;;;;;0.55;0.55;;;;;;;-3.98;100.00;100987.84;5093943;28;20044;-46
2023/12/02 03:03:28;;;;;;;0.63;0.63;;;;;;;-3.94;100.00;100988.09;5093831;28;20024;-45
2023/12/02 03:05:55;;;;;;;0.50;0.50;;;;;;;-3.87;100.00;100981.25;5093168;28;20028;-44
2023/12/02 03:08:20;;;;;;;0.70;0.70;;;;;;;-3.85;100.00;100988.94;5093635;28;20032;-46
2023/12/02 03:10:48;;;;;;;0.60;0.60;;;;;;;-3.84;100.00;100996.63;5093257;28;20032;-45
2023/12/02 03:13:14;;;;;;;0.60;0.60;;;;;;;-3.77;100.00;100987.09;5093235;28;20016;-45
2023/12/02 03:15:39;;;;;;;0.70;0.70;;;;;;;-3.76;100.00;101002.34;5093963;28;20383;-45
2023/12/02 03:18:04;;;;;;;0.65;0.65;;;;;;;-3.71;100.00;100990.16;5093148;28;20532;-45
2023/12/02 03:20:29;;;;;;;0.70;0.70;;;;;;;-3.73;100.00;100990.03;5093180;28;20069;-45
2023/12/02 03:22:55;;;;;;;0.60;0.60;;;;;;;-3.64;100.00;100995.88;5093763;28;20391;-45
2023/12/02 03:25:20;;;;;;;0.60;0.60;;;;;;;-3.66;100.00;100992.31;5092747;28;20464;-46
2023/12/02 03:27:45;;;;;;;0.60;0.60;;;;;;;-3.63;100.00;100984.16;5093163;28;20111;-45
2023/12/02 03:30:12;;;;;;;0.70;0.70;;;;;;;-3.65;100.00;100981.50;5093384;28;20021;-44
2023/12/02 03:32:38;;;;;;;0.50;0.50;;;;;;;-3.69;100.00;100982.00;5093041;28;20051;-45
2023/12/02 03:35:06;;;;;;;0.60;0.60;;;;;;;-3.68;100.00;100985.38;5093060;28;20443;-45
2023/12/02 03:37:31;;;;;;;0.50;0.50;;;;;;;-3.67;100.00;100980.50;5092847;28;20383;-45
2023/12/02 03:39:56;;;;;;;0.65;0.65;;;;;;;-3.71;100.00;100992.69;5092837;28;20032;-45
2023/12/02 03:42:22;;;;;;;0.60;0.60;;;;;;;-3.70;100.00;100975.19;5091729;28;20032;-46
2023/12/02 03:44:47;;;;;;;0.50;0.50;;;;;;;-3.74;100.00;100979.81;5093492;28;20077;-45
2023/12/02 03:47:12;;;;;;;0.50;0.50;;;;;;;-3.73;100.00;100989.13;5092172;28;20131;-45
2023/12/02 03:49:38;;;;;;;0.68;0.68;;;;;;;-3.74;100.00;101003.38;5093142;28;20020;-45
2023/12/02 03:52:04;;;;;;;0.60;0.60;;;;;;;-3.59;100.00;101011.41;5093370;28;20099;-45
2023/12/02 03:54:29;;;;;;;0.55;0.55;;;;;;;-3.70;100.00;100976.81;5092274;28;20028;-45
2023/12/02 03:56:54;;;;;;;0.65;0.65;;;;;;;-3.70;100.00;101010.44;5092691;28;20111;-45
2023/12/02 03:59:20;;;;;;;0.60;0.60;;;;;;;-3.66;100.00;100996.50;5092911;28;20039;-45
2023/12/02 04:01:45;;;;;;;0.60;0.60;;;;;;;-3.65;100.00;101001.66;5092676;28;20047;-45
2023/12/02 04:04:10;;;;;;;0.60;0.60;;;;;;;-3.57;100.00;101004.00;5092690;28;20024;-46
2023/12/02 04:06:36;;;;;;;0.65;0.65;;;;;;;-3.58;100.00;101004.72;5093053;28;20375;-46
2023/12/02 04:09:01;;;;;;;0.70;0.70;;;;;;;-3.57;100.00;101014.06;5092097;28;20031;-45
2023/12/02 04:11:27;;;;;;;0.60;0.60;;;;;;;-3.58;100.00;101009.78;5092471;28;20024;-45
2023/12/02 04:13:52;;;;;;;0.70;0.70;;;;;;;-3.60;100.00;101007.13;5093115;28;20031;-46
2023/12/02 04:16:17;;;;;;;0.60;0.60;;;;;;;-3.55;100.00;101015.97;5091885;28;20396;-46
2023/12/02 04:18:43;;;;;;;0.60;0.60;;;;;;;-3.59;100.00;101020.59;5092857;28;20020;-45
2023/12/02 04:21:09;;;;;;;0.60;0.60;;;;;;;-3.42;100.00;101025.50;5092373;28;20028;-45
2023/12/02 04:23:36;;;;;;;0.60;0.60;;;;;;;-3.60;100.00;101019.72;5092531;28;20387;-47
2023/12/02 04:26:01;;;;;;;0.60;0.60;;;;;;;-3.63;100.00;101034.53;5098058;28;20103;-46
2023/12/02 04:28:26;;;;;;;0.47;0.47;;;;;;;-3.58;100.00;101035.84;5112478;28;20489;-45
2023/12/02 04:30:52;;;;;;;0.60;0.60;;;;;;;-3.62;100.00;101033.78;5113049;28;20549;-45
2023/12/02 04:33:17;;;;;;;0.60;0.60;;;;;;;-3.62;100.00;101032.91;5112750;28;20027;-46
2023/12/02 04:35:42;;;;;;;0.60;0.60;;;;;;;-3.65;100.00;101026.84;5112536;28;20439;-47
2023/12/02 04:38:07;;;;;;;0.60;0.60;;;;;;;-3.64;100.00;101031.16;5112828;28;20111;-45
2023/12/02 04:40:33;;;;;;;0.63;0.63;;;;;;;-3.68;100.00;101034.16;5112672;28;20103;-47
2023/12/02 04:42:58;;;;;;;0.60;0.60;;;;;;;-3.69;100.00;101027.34;5112591;28;20026;-47
2023/12/02 04:45:24;;;;;;;0.50;0.50;;;;;;;-3.67;100.00;101032.50;5112437;28;20039;-49
2023/12/02 04:47:49;;;;;;;0.60;0.60;;;;;;;-3.67;100.00;101038.44;5113004;28;20031;-45
2023/12/02 04:50:14;;;;;;;0.60;0.60;;;;;;;-3.60;100.00;101033.94;5112159;28;20028;-48
2023/12/02 04:52:40;;;;;;;0.60;0.60;;;;;;;-3.53;100.00;101036.25;5112505;28;20027;-47
2023/12/02 04:55:06;;;;;;;0.60;0.60;;;;;;;-3.58;100.00;101029.94;5116037;28;20024;-47
2023/12/02 04:57:31;;;;;;;0.70;0.70;;;;;;;-3.61;100.00;101034.69;5116065;28;20070;-48
2023/12/02 04:59:56;;;;;;;0.60;0.60;;;;;;;-3.59;100.00;101038.22;5116741;28;20103;-50
2023/12/02 05:02:23;;;;;;;0.60;0.60;;;;;;;-3.58;100.00;101045.03;5116614;28;20371;-47
2023/12/02 05:04:49;;;;;;;0.70;0.70;;;;;;;-3.58;100.00;101048.44;5116275;28;20034;-47
2023/12/02 05:07:15;;;;;;;0.60;0.60;;;;;;;-3.61;100.00;101042.25;5116240;28;20016;-49
2023/12/02 05:09:40;;;;;;;0.52;0.52;;;;;;;-3.60;100.00;101047.44;5116488;28;20088;-47
2023/12/02 05:12:07;;;;;;;0.60;0.60;;;;;;;-3.60;100.00;101051.56;5115991;28;20028;-49
2023/12/02 05:14:32;;;;;;;0.60;0.60;;;;;;;-3.60;100.00;101051.56;5116417;28;20028;-48
2023/12/02 05:16:57;;;;;;;0.50;0.50;;;;;;;-3.62;100.00;101060.63;5116326;28;20467;-46
2023/12/02 05:19:23;;;;;;;0.60;0.60;;;;;;;-3.60;100.00;101051.56;5115451;28;20035;-46
2023/12/02 05:21:48;;;;;;;0.60;0.60;;;;;;;-3.47;100.00;101059.50;5116488;28;20062;-50
2023/12/02 05:24:13;;;;;;;0.60;0.60;;;;;;;-3.59;100.00;101073.50;5116030;28;20444;-48
2023/12/02 05:26:38;;;;;;;0.60;0.60;;;;;;;-3.59;100.00;101060.91;5115373;28;20034;-46
2023/12/02 05:29:05;;;;;;;0.60;0.60;;;;;;;-3.58;100.00;101065.19;5116159;28;20027;-49
2023/12/02 05:31:31;;;;;;;0.60;0.60;;;;;;;-3.61;100.00;101062.41;5115548;28;20023;-48
2023/12/02 05:33:56;;;;;;;0.60;0.60;;;;;;;-3.47;100.00;101059.50;5115923;28;20024;-50
2023/12/02 05:36:21;;;;;;;0.60;0.60;;;;;;;-3.61;100.00;101054.84;5115700;28;20038;-46
2023/12/02 05:38:47;;;;;;;0.60;0.60;;;;;;;-3.60;100.00;101046.53;5115388;28;20097;-48
2023/12/02 05:41:12;;;;;;;0.50;0.50;;;;;;;-3.68;100.00;101051.78;5115601;28;20493;-47
2023/12/02 05:43:38;;;;;;;0.60;0.60;;;;;;;-3.67;100.00;101061.13;5116179;28;20027;-47
2023/12/02 05:46:03;;;;;;;0.60;0.60;;;;;;;-3.65;100.00;101068.81;5115183;28;20363;-49
2023/12/02 05:48:28;;;;;;;0.60;0.60;;;;;;;-3.68;100.00;101068.50;5115372;28;20158;-48
2023/12/02 05:50:53;;;;;;;0.70;0.70;;;;;;;-3.73;100.00;101073.16;5116017;28;20481;-47
2023/12/02 05:53:19;;;;;;;0.70;0.70;;;;;;;-3.88;100.00;101074.28;5114924;28;20023;-49
2023/12/02 05:55:44;;;;;;;0.52;0.52;;;;;;;-3.97;100.00;101082.75;5115541;28;20452;-45
2023/12/02 05:58:09;;;;;;;0.60;0.60;;;;;;;-4.04;100.00;101085.47;5115428;28;20035;-45
2023/12/02 06:00:35;;;;;;;0.65;0.65;;;;;;;-3.88;100.00;101089.38;5115125;28;20047;-49
2023/12/02 06:03:01;;;;;;;0.60;0.60;;;;;;;-4.04;100.00;101087.97;5115503;28;20467;-49
2023/12/02 06:05:26;;;;;;;0.60;0.60;;;;;;;-4.04;100.00;101087.06;5114082;28;20034;-46
2023/12/02 06:07:52;;;;;;;0.60;0.60;;;;;;;-4.02;100.00;101089.00;5114984;28;20028;-49
2023/12/02 06:10:18;;;;;;;0.70;0.70;;;;;;;-4.00;100.00;101085.00;5115168;28;20111;-49
2023/12/02 06:12:43;;;;;;;0.70;0.70;;;;;;;-3.95;100.00;101079.50;5115568;28;20093;-46
2023/12/02 06:15:10;;;;;;;0.60;0.60;;;;;;;-3.92;100.00;101083.19;5115011;28;20020;-49
2023/12/02 06:17:35;;;;;;;0.60;0.60;;;;;;;-3.88;100.00;101084.34;5115004;28;20368;-46
2023/12/02 06:20:01;;;;;;;0.60;0.60;;;;;;;-3.77;100.00;101091.25;5115339;28;20015;-50
2023/12/02 06:22:26;;;;;;;0.50;0.50;;;;;;;-3.84;100.00;101086.41;5114115;28;20015;-49
2023/12/02 06:24:51;;;;;;;0.60;0.60;;;;;;;-3.73;100.00;101094.91;5115114;28;20019;-46
2023/12/02 06:27:17;;;;;;;0.70;0.70;;;;;;;-3.75;100.00;101089.75;5114947;28;20127;-48
2023/12/02 06:29:42;;;;;;;0.70;0.70;;;;;;;-3.66;100.00;101092.22;5114454;28;20023;-48
2023/12/02 06:32:08;;;;;;;0.50;0.50;;;;;;;-3.60;100.00;101101.94;5115328;28;20375;-46
2023/12/02 06:34:33;;;;;;;0.52;0.52;;;;;;;-3.63;100.00;101107.59;5114574;28;20110;-48
2023/12/02 06:36:58;;;;;;;0.60;0.60;;;;;;;-3.66;100.00;101103.16;5114038;28;20032;-45
2023/12/02 06:39:24;;;;;;;0.50;0.50;;;;;;;-3.61;100.00;101100.19;5114474;28;20586;-49
2023/12/02 06:41:49;;;;;;;0.70;0.70;;;;;;;-3.58;100.00;101102.97;5114492;28;20110;-49
2023/12/02 06:44:14;;;;;;;0.70;0.70;;;;;;;-3.56;100.00;101109.06;5114447;28;20032;-48
2023/12/02 06:46:40;;;;;;;0.70;0.70;;;;;;;-3.49;100.00;101118.94;5114613;28;20104;-46
2023/12/02 06:49:05;;;;;;;0.60;0.60;;;;;;;-3.52;100.00;101111.97;5114177;28;20035;-51
2023/12/02 06:51:30;;;;;;;0.50;0.50;;;;;;;-3.52;100.00;101109.44;5114174;28;20028;-49
2023/12/02 06:53:57;;;;;;;0.50;0.50;;;;;;;-3.51;100.00;101117.88;5114740;28;20153;-45
2023/12/02 06:56:23;;;;;;;0.50;0.50;;;;;;;-3.53;100.00;101121.91;5113680;28;20020;-45
2023/12/02 06:58:49;;;;;;;0.70;0.70;;;;;;;-3.52;100.00;101126.22;5114401;28;20034;-48
2023/12/02 07:01:26;;;;;;;0.60;0.60;;;;;;;-3.51;100.00;101138.94;5114227;28;20026;-50
2023/12/02 07:03:54;;;;;;;0.50;0.50;;;;;;;-3.34;100.00;101147.16;5113953;28;20470;-49
2023/12/02 07:06:20;;;;;;;0.60;0.60;;;;;;;-3.44;100.00;101139.50;5113764;28;20034;-50
2023/12/02 07:08:47;;;;;;;0.60;0.60;;;;;;;-3.30;100.00;101141.63;5114421;28;20112;-50
2023/12/02 07:11:12;;;;;;;0.60;0.60;;;;;;;-3.39;100.00;101141.69;5113469;28;20031;-50
2023/12/02 07:13:37;;;;;;;0.60;0.60;;;;;;;-3.48;100.00;101145.91;5114036;28;20034;-48
2023/12/02 07:16:03;;;;;;;0.60;0.60;;;;;;;-3.48;100.00;101148.41;5113980;28;20479;-50
2023/12/02 07:18:28;;;;;;;0.60;0.60;;;;;;;-3.44;100.00;101152.97;5112793;28;20032;-47
2023/12/02 07:20:53;;;;;;;0.60;0.60;;;;;;;-3.45;100.00;101157.88;5113958;28;20102;-50
2023/12/02 07:23:19;;;;;;;0.60;0.60;;;;;;;-3.45;100.00;101153.72;5113805;28;20077;-50
2023/12/02 07:25:44;;;;;;;0.60;0.60;;;;;;;-3.46;100.00;101162.03;5113240;28;20516;-48
2023/12/02 07:28:09;;;;;;;0.57;0.57;;;;;;;-3.46;100.00;101154.47;5113508;28;20127;-45
2023/12/02 07:30:35;;;;;;;0.70;0.70;;;;;;;-3.43;100.00;101156.38;5113994;28;20023;-47
2023/12/02 07:33:01;;;;;;;0.60;0.60;;;;;;;-3.40;100.00;101177.72;5113051;28;20020;-45
2023/12/02 07:35:26;;;;;;;0.60;0.60;;;;;;;-3.38;100.00;101171.19;5113482;28;20026;-46
2023/12/02 07:37:52;;;;;;;0.70;0.70;;;;;;;-3.39;100.00;101169.41;5113593;28;20027;-45
2023/12/02 07:40:17;;;;;;;0.70;0.70;;;;;;;-3.47;100.00;101163.66;5112806;28;20416;-46
2023/12/02 07:42:42;;;;;;;0.60;0.60;;;;;;;-3.53;100.00;101164.75;5113545;28;20038;-45
2023/12/02 07:45:08;;;;;;;0.60;0.60;;;;;;;-3.60;100.00;101175.00;5113032;28;20024;-47
2023/12/02 07:47:33;;;;;;;0.60;0.60;;;;;;;-3.65;100.00;101183.03;5112983;28;20050;-47
2023/12/02 07:49:59;;;;;;;0.60;0.60;;;;;;;-3.71;100.00;101184.09;5113587;28;20098;-45
2023/12/02 07:52:24;;;;;;;0.60;0.60;;;;;;;-3.72;100.00;101187.38;5113079;28;20031;-45
2023/12/02 07:54:49;;;;;;;0.60;0.60;;;;;;;-3.84;100.00;101192.16;5113426;28;20016;-48
2023/12/02 07:57:15;;;;;;;0.60;0.60;;;;;;;-3.77;100.00;101192.00;5113215;28;20028;-45
2023/12/02 07:59:40;;;;;;;0.60;0.60;;;;;;;-3.89;100.00;101180.78;5113002;28;20454;-45
2023/12/02 08:02:05;;;;;;;0.52;0.52;;;;;;;-3.92;100.00;101188.06;5113156;28;20024;-45
2023/12/02 08:04:31;;;;;;;0.60;0.60;;;;;;;-3.97;100.00;101191.00;5113056;28;20027;-45
2023/12/02 08:06:56;;;;;;;0.60;0.60;;;;;;;-3.92;100.00;101193.09;5112811;28;20061;-46
2023/12/02 08:09:21;;;;;;;0.60;0.60;;;;;;;-3.92;100.00;101200.66;5112947;28;20478;-46
2023/12/02 08:11:46;;;;;;;0.60;0.60;;;;;;;-3.99;100.00;101202.59;5113515;28;20107;-45
2023/12/02 08:14:12;;;;;;;0.57;0.57;;;;;;;-4.00;100.00;101205.84;5112321;28;20427;-45
2023/12/02 08:16:37;;;;;;;0.60;0.60;;;;;;;-4.05;100.00;101214.59;5112760;28;20035;-45
2023/12/02 08:19:02;;;;;;;0.60;0.60;;;;;;;-4.01;100.00;101209.09;5113108;28;20020;-45
2023/12/02 08:21:27;;;;;;;0.60;0.60;;;;;;;-4.10;100.00;101218.31;5112219;28;20476;-47
2023/12/02 08:23:53;;;;;;;0.70;0.70;;;;;;;-4.04;100.00;101216.38;5112942;28;20110;-45
2023/12/02 08:26:18;;;;;;;0.43;0.43;;;;;;;-4.00;100.00;101215.91;5112976;28;20023;-45
2023/12/02 08:28:46;;;;;;;0.60;0.60;;;;;;;-3.88;100.00;101225.38;5113375;28;20153;-44
2023/12/02 08:31:11;;;;;;;;;;;;;;;-3.71;100.00;101234.50;5117631;28;20034;-46
2023/12/02 08:33:37;;;;;;;0.70;0.70;;;;;;;-3.64;100.00;101232.69;5117389;28;20278;-44
2023/12/02 08:36:03;;;;;;;0.60;0.60;;;;;;;-3.53;100.00;101235.31;5116364;28;20031;-45
2023/12/02 08:38:28;;;;;;;0.60;0.60;;;;;;;-3.52;100.00;101239.59;5116894;28;20040;-46
2023/12/02 08:40:54;;;;;;;0.60;0.60;;;;;;;-3.43;100.00;101242.06;5117216;28;20027;-47
2023/12/02 08:43:19;;;;;;;0.68;0.68;;;;;;;-3.43;100.00;101242.97;5116125;28;20382;-46
2023/12/02 08:45:44;;;;;;;0.70;0.70;;;;;;;-3.35;100.00;101247.06;5116793;28;20052;-46
2023/12/02 08:48:10;;;;;;;0.60;0.60;;;;;;;-3.25;100.00;101242.84;5116716;28;20463;-48
2023/12/02 08:50:35;;;;;;;0.70;0.70;;;;;;;-3.14;100.00;101252.28;5116222;28;20030;-49
2023/12/02 08:53:01;;;;;;;0.50;0.50;;;;;;;-3.03;100.00;101251.63;5116781;28;20026;-45
2023/12/02 08:55:26;;;;;;;0.60;0.60;;;;;;;-2.85;100.00;101251.53;5116067;28;20063;-48
2023/12/02 08:57:51;;;;;;;0.60;0.60;;;;;;;-2.82;100.00;101251.78;5116587;28;20035;-45
2023/12/02 09:00:17;;;;;;;0.60;0.60;;;;;;;-2.78;100.00;101245.38;5116545;28;20020;-49
2023/12/02 09:02:42;;;;;;;0.60;0.60;;;;;;;-2.75;100.00;101249.09;5116311;28;20032;-47
2023/12/02 09:05:08;;;;;;;0.57;0.57;;;;;;;-2.76;100.00;101249.81;5116361;28;20051;-45
2023/12/02 09:07:33;;;;;;;0.50;0.50;;;;;;;-2.73;100.00;101260.19;5116516;28;20105;-48
2023/12/02 09:09:59;;;;;;;0.65;0.65;;;;;;;-2.68;100.00;101256.44;5115903;28;20072;-46
2023/12/02 09:12:24;;;;;;;0.60;0.60;;;;;;;-2.69;100.00;101258.81;5116191;28;20031;-49
2023/12/02 09:15:29;;;;;;;0.50;0.50;;;;;;;-2.57;100.00;101264.97;5116529;28;20023;-43
2023/12/02 09:18:07;;;;;;;0.60;0.60;;;;;;;-2.64;100.00;101257.59;5115360;28;20035;-48
2023/12/02 09:20:46;;;;;;;0.70;0.70;;;;;;;-2.69;100.00;101263.88;5116088;28;20360;-46
2023/12/02 09:23:13;;;;;;;0.60;0.60;;;;;;;-2.68;100.00;101264.00;5116103;28;20408;-44
2023/12/02 09:25:40;;;;;;;0.68;0.68;;;;;;;-2.62;100.00;101267.81;5115663;28;20088;-46
2023/12/02 09:28:05;;;;;;;0.60;0.60;;;;;;;-2.59;100.00;101263.94;5116356;28;20028;-45
2023/12/02 09:30:35;;;;;;;0.60;0.60;;;;;;;-2.57;100.00;101269.13;5115587;28;20039;-46
2023/12/02 09:33:01;;;;;;;0.60;0.60;;;;;;;-2.53;100.00;101266.09;5115857;28;20405;-48
2023/12/02 09:35:26;;;;;;;0.60;0.60;;;;;;;-2.54;100.00;101271.94;5115799;28;20080;-44
2023/12/02 09:37:52;;;;;;;0.60;0.60;;;;;;;-2.56;100.00;101279.34;5115544;28;20035;-48
2023/12/02 09:40:23;;;;;;;0.63;0.63;;;;;;;-2.57;100.00;101271.63;5115263;28;20028;-44
2023/12/02 09:43:05;;;;;;;0.50;0.50;;;;;;;-2.53;100.00;101273.69;5115808;28;20390;-45
2023/12/02 09:45:43;;;;;;;0.70;0.70;;;;;;;-2.37;100.00;101283.50;5115128;28;20096;-44
2023/12/02 09:48:34;;;;;;;0.50;0.50;;;;;;;-2.19;100.00;101275.03;5115936;28;20103;-44
2023/12/02 09:51:16;;;;;;;0.60;0.60;;;;;;;-1.83;100.00;101290.72;5115783;28;20131;-49
2023/12/02 09:54:01;;;;;;;0.60;0.60;;;;;;;-1.47;100.00;101284.53;5114904;28;20487;-44
2023/12/02 09:56:32;;;;;;;0.60;0.60;;;;;;;-1.27;100.00;101275.22;5115389;28;20028;-44
2023/12/02 09:59:13;;;;;;;0.50;0.50;;;;;;;-0.90;100.00;101283.34;5115090;28;20027;-43
2023/12/02 10:01:43;;;;;;;0.50;0.50;;;;;;;-0.75;100.00;101284.59;5115345;28;20348;-44
2023/12/02 10:04:33;;;;;;;0.50;0.50;;;;;;;-0.78;100.00;101289.38;5115682;28;20104;-44
2023/12/02 10:07:24;;;;;;;0.50;0.50;;;;;;;-0.81;100.00;101283.19;5114686;28;20501;-45
2023/12/02 10:10:08;;;;;;;0.50;0.50;;;;;;;-0.82;100.00;101294.97;5115567;28;20039;-43
2023/12/02 10:13:04;;;;;;;0.50;0.50;;;;;;;-0.70;100.00;101287.47;5115416;28;20032;-45
2023/12/02 10:15:35;;;;;;;0.50;0.50;;;;;;;-0.66;100.00;101294.56;5114757;28;20036;-44
2023/12/02 10:18:08;;;;;;;0.40;0.40;;;;;;;-0.68;100.00;101296.09;5115110;28;20027;-44
2023/12/02 10:20:35;;;;;;;0.47;0.47;;;;;;;-0.68;100.00;101291.03;5114683;28;20030;-45
2023/12/02 10:23:36;;;;;;;0.40;0.40;;;;;;;-0.53;100.00;101293.91;5115165;28;20072;-47
2023/12/02 10:26:11;;;;;;;0.50;0.50;;;;;;;-0.77;100.00;101296.22;5083316;28;20043;-45
2023/12/02 10:29:08;;;;;;;0.50;0.50;;;;;;;-0.93;100.00;101295.72;5114428;28;20034;-45
2023/12/02 10:31:35;;;;;;;0.50;0.50;;;;;;;-0.81;100.00;101291.69;5115020;28;20076;-48
2023/12/02 10:34:22;;;;;;;0.40;0.40;;;;;;;-0.72;100.00;101294.97;5114591;28;20111;-44
2023/12/02 10:36:51;;;;;;;0.50;0.50;;;;;;;-0.80;100.00;101290.94;5114745;28;20031;-48
2023/12/02 10:39:43;;;;;;;0.50;0.50;;;;;;;-0.59;100.00;101301.03;5114546;28;20421;-47
2023/12/02 10:42:23;;;;;;;0.40;0.40;;;;;;;-0.51;100.00;101300.00;5114181;28;20038;-44
2023/12/02 10:45:00;;;;;;;0.40;0.40;;;;;;;-0.20;100.00;101299.94;5114915;28;20107;-44
2023/12/02 10:47:27;;;;;;;0.50;0.50;;;;;;;-0.29;100.00;101297.56;5114639;28;20055;-45
2023/12/02 10:49:53;;;;;;;0.50;0.50;;;;;;;-0.32;100.00;101296.41;5114177;28;20394;-44
2023/12/02 10:52:21;;;;;;;0.40;0.40;;;;;;;-0.46;100.00;101292.81;5113974;28;20459;-46
2023/12/02 10:54:49;;;;;;;;;;;;;;;-0.13;100.00;101293.72;5115197;28;20028;-46
2023/12/02 10:57:16;;;;;;;0.50;0.50;;;;;;;-0.34;100.00;101294.66;5113474;28;19954;-45
2023/12/02 11:00:07;;;;;;;0.60;0.60;;;;;;;-0.28;100.00;101303.53;5114497;28;20072;-44
2023/12/02 11:03:20;;;;;;;0.40;0.40;;;;;;;-0.20;100.00;101299.94;5113790;28;20034;-46
2023/12/02 11:05:55;;;;;;;0.68;0.68;;;;;;;-0.36;100.00;101296.19;5037449;28;20035;-44
2023/12/02 11:08:38;;;;;;;0.50;0.50;;;;;;;-0.51;100.00;101303.41;5114418;28;20107;-48
2023/12/02 11:11:10;;;;;;;0.40;0.40;;;;;;;-0.52;100.00;101295.69;5113638;28;20027;-45
2023/12/02 11:13:36;;;;;;;0.45;0.45;;;;;;;-0.52;100.00;101294.06;5114272;28;20034;-44
2023/12/02 11:16:20;;;;;;;0.60;0.60;;;;;;;-0.59;100.00;101301.91;5113589;28;20019;-48
2023/12/02 11:19:08;;;;;;;0.55;0.55;;;;;;;-0.66;100.00;101307.22;5113955;28;20035;-49